sensor_id;sensor_type;location;lat;lon;timestamp;P1;durP1;ratioP1;P2;durP2;ratioP2
32852;SDS011;20515;51.704;5.700;2022-07-03T00:00:15;13.53;;;4.70;;
32852;SDS011;20515;51.704;5.700;2022-07-03T00:02:41;12.87;;;4.70;;
32852;SDS011;20515;51.704;5.700;2022-07-03T00:05:06;13.23;;;4.53;;
32852;SDS011;20515;51.704;5.700;2022-07-03T00:07:32;13.00;;;4.30;;
32852;SDS011;20515;51.704;5.700;2022-07-03T00:09:57;12.47;;;4.40;;
32852;SDS011;20515;51.704;5.700;2022-07-03T00:12:23;15.60;;;4.43;;
32852;SDS011;20515;51.704;5.700;2022-07-03T00:14:49;16.17;;;4.50;;
32852;SDS011;20515;51.704;5.700;2022-07-03T00:17:16;11.17;;;4.47;;
32852;SDS011;20515;51.704;5.700;2022-07-03T00:19:41;16.00;;;4.83;;
32852;SDS011;20515;51.704;5.700;2022-07-03T00:22:07;11.87;;;4.60;;
32852;SDS011;20515;51.704;5.700;2022-07-03T00:27:11;14.80;;;5.20;;
32852;SDS011;20515;51.704;5.700;2022-07-03T00:29:43;14.87;;;5.17;;
32852;SDS011;20515;51.704;5.700;2022-07-03T00:32:10;12.53;;;5.07;;
32852;SDS011;20515;51.704;5.700;2022-07-03T00:34:38;15.70;;;4.80;;
32852;SDS011;20515;51.704;5.700;2022-07-03T00:37:05;15.97;;;4.80;;
32852;SDS011;20515;51.704;5.700;2022-07-03T00:39:34;12.30;;;5.10;;
32852;SDS011;20515;51.704;5.700;2022-07-03T00:42:02;17.97;;;5.50;;
32852;SDS011;20515;51.704;5.700;2022-07-03T00:44:29;13.37;;;5.03;;
32852;SDS011;20515;51.704;5.700;2022-07-03T00:46:55;12.60;;;4.53;;
32852;SDS011;20515;51.704;5.700;2022-07-03T00:49:22;13.07;;;4.53;;
32852;SDS011;20515;51.704;5.700;2022-07-03T00:51:50;12.90;;;5.47;;
32852;SDS011;20515;51.704;5.700;2022-07-03T00:54:17;15.10;;;5.30;;
32852;SDS011;20515;51.704;5.700;2022-07-03T00:56:46;16.53;;;6.03;;
32852;SDS011;20515;51.704;5.700;2022-07-03T00:59:15;12.80;;;5.97;;
32852;SDS011;20515;51.704;5.700;2022-07-03T01:01:40;12.87;;;4.90;;
32852;SDS011;20515;51.704;5.700;2022-07-03T01:06:40;17.17;;;6.70;;
32852;SDS011;20515;51.704;5.700;2022-07-03T01:09:34;14.03;;;6.60;;
32852;SDS011;20515;51.704;5.700;2022-07-03T01:12:09;17.00;;;6.50;;
32852;SDS011;20515;51.704;5.700;2022-07-03T01:17:39;13.13;;;6.20;;
32852;SDS011;20515;51.704;5.700;2022-07-03T01:20:09;14.00;;;6.20;;
32852;SDS011;20515;51.704;5.700;2022-07-03T01:22:36;13.57;;;6.37;;
32852;SDS011;20515;51.704;5.700;2022-07-03T01:26:08;15.73;;;6.00;;
32852;SDS011;20515;51.704;5.700;2022-07-03T01:30:42;19.30;;;6.27;;
32852;SDS011;20515;51.704;5.700;2022-07-03T01:33:12;13.10;;;6.20;;
32852;SDS011;20515;51.704;5.700;2022-07-03T01:35:41;12.87;;;6.13;;
32852;SDS011;20515;51.704;5.700;2022-07-03T01:38:18;15.73;;;6.57;;
32852;SDS011;20515;51.704;5.700;2022-07-03T01:40:46;13.57;;;6.53;;
32852;SDS011;20515;51.704;5.700;2022-07-03T01:43:14;13.97;;;6.70;;
32852;SDS011;20515;51.704;5.700;2022-07-03T01:45:42;14.40;;;6.70;;
32852;SDS011;20515;51.704;5.700;2022-07-03T01:48:09;13.73;;;7.07;;
32852;SDS011;20515;51.704;5.700;2022-07-03T01:50:36;14.50;;;7.20;;
32852;SDS011;20515;51.704;5.700;2022-07-03T01:53:03;15.20;;;7.27;;
32852;SDS011;20515;51.704;5.700;2022-07-03T01:55:31;17.43;;;7.33;;
32852;SDS011;20515;51.704;5.700;2022-07-03T01:57:58;16.03;;;7.77;;
32852;SDS011;20515;51.704;5.700;2022-07-03T02:00:23;17.10;;;8.10;;
32852;SDS011;20515;51.704;5.700;2022-07-03T02:03:02;14.20;;;7.50;;
32852;SDS011;20515;51.704;5.700;2022-07-03T02:05:31;16.73;;;8.20;;
32852;SDS011;20515;51.704;5.700;2022-07-03T02:11:18;16.70;;;8.33;;
32852;SDS011;20515;51.704;5.700;2022-07-03T02:16:36;14.73;;;7.90;;
32852;SDS011;20515;51.704;5.700;2022-07-03T02:19:28;18.40;;;7.90;;
32852;SDS011;20515;51.704;5.700;2022-07-03T02:22:02;14.80;;;7.93;;
32852;SDS011;20515;51.704;5.700;2022-07-03T02:24:33;15.33;;;7.73;;
32852;SDS011;20515;51.704;5.700;2022-07-03T02:27:06;14.07;;;7.27;;
32852;SDS011;20515;51.704;5.700;2022-07-03T02:29:41;15.67;;;7.67;;
32852;SDS011;20515;51.704;5.700;2022-07-03T02:32:12;13.60;;;6.80;;
32852;SDS011;20515;51.704;5.700;2022-07-03T02:34:43;14.63;;;7.60;;
32852;SDS011;20515;51.704;5.700;2022-07-03T02:37:15;16.60;;;8.43;;
32852;SDS011;20515;51.704;5.700;2022-07-03T02:39:44;16.77;;;7.70;;
32852;SDS011;20515;51.704;5.700;2022-07-03T02:45:10;15.87;;;8.20;;
32852;SDS011;20515;51.704;5.700;2022-07-03T02:47:47;13.83;;;7.50;;
32852;SDS011;20515;51.704;5.700;2022-07-03T02:50:18;15.23;;;7.90;;
32852;SDS011;20515;51.704;5.700;2022-07-03T02:52:49;14.27;;;7.77;;
32852;SDS011;20515;51.704;5.700;2022-07-03T03:03:43;16.70;;;8.40;;
32852;SDS011;20515;51.704;5.700;2022-07-03T03:06:15;19.47;;;9.00;;
32852;SDS011;20515;51.704;5.700;2022-07-03T03:08:48;17.57;;;8.73;;
32852;SDS011;20515;51.704;5.700;2022-07-03T03:11:29;14.77;;;8.33;;
32852;SDS011;20515;51.704;5.700;2022-07-03T03:14:05;14.70;;;8.50;;
32852;SDS011;20515;51.704;5.700;2022-07-03T03:16:33;15.53;;;8.27;;
32852;SDS011;20515;51.704;5.700;2022-07-03T03:19:01;16.53;;;7.70;;
32852;SDS011;20515;51.704;5.700;2022-07-03T03:21:26;18.30;;;8.17;;
32852;SDS011;20515;51.704;5.700;2022-07-03T03:23:56;18.37;;;8.60;;
32852;SDS011;20515;51.704;5.700;2022-07-03T03:26:23;16.73;;;8.13;;
32852;SDS011;20515;51.704;5.700;2022-07-03T03:28:53;15.47;;;8.37;;
32852;SDS011;20515;51.704;5.700;2022-07-03T03:31:19;16.73;;;7.87;;
32852;SDS011;20515;51.704;5.700;2022-07-03T03:33:46;15.20;;;8.23;;
32852;SDS011;20515;51.704;5.700;2022-07-03T03:36:14;16.17;;;8.33;;
32852;SDS011;20515;51.704;5.700;2022-07-03T03:38:43;16.70;;;9.40;;
32852;SDS011;20515;51.704;5.700;2022-07-03T03:41:09;14.97;;;8.17;;
32852;SDS011;20515;51.704;5.700;2022-07-03T03:43:35;16.97;;;9.03;;
32852;SDS011;20515;51.704;5.700;2022-07-03T03:46:01;17.93;;;8.57;;
32852;SDS011;20515;51.704;5.700;2022-07-03T03:48:27;19.03;;;8.43;;
32852;SDS011;20515;51.704;5.700;2022-07-03T03:50:54;16.00;;;8.43;;
32852;SDS011;20515;51.704;5.700;2022-07-03T03:53:20;16.07;;;9.10;;
32852;SDS011;20515;51.704;5.700;2022-07-03T03:58:32;17.23;;;8.60;;
32852;SDS011;20515;51.704;5.700;2022-07-03T04:00:59;15.63;;;8.37;;
32852;SDS011;20515;51.704;5.700;2022-07-03T04:03:27;17.00;;;9.23;;
32852;SDS011;20515;51.704;5.700;2022-07-03T04:05:53;14.80;;;8.47;;
32852;SDS011;20515;51.704;5.700;2022-07-03T04:08:19;16.37;;;9.00;;
32852;SDS011;20515;51.704;5.700;2022-07-03T04:10:45;16.17;;;8.70;;
32852;SDS011;20515;51.704;5.700;2022-07-03T04:13:11;14.97;;;8.67;;
32852;SDS011;20515;51.704;5.700;2022-07-03T04:15:36;19.10;;;9.43;;
32852;SDS011;20515;51.704;5.700;2022-07-03T04:18:01;15.53;;;8.93;;
32852;SDS011;20515;51.704;5.700;2022-07-03T04:20:27;15.13;;;8.43;;
32852;SDS011;20515;51.704;5.700;2022-07-03T04:22:52;16.20;;;8.57;;
32852;SDS011;20515;51.704;5.700;2022-07-03T04:25:18;18.93;;;8.20;;
32852;SDS011;20515;51.704;5.700;2022-07-03T04:27:43;17.80;;;8.63;;
32852;SDS011;20515;51.704;5.700;2022-07-03T04:30:09;17.97;;;8.93;;
32852;SDS011;20515;51.704;5.700;2022-07-03T04:32:38;16.10;;;8.37;;
32852;SDS011;20515;51.704;5.700;2022-07-03T04:35:03;16.17;;;8.30;;
32852;SDS011;20515;51.704;5.700;2022-07-03T04:37:29;18.30;;;8.53;;
32852;SDS011;20515;51.704;5.700;2022-07-03T04:39:54;16.53;;;8.30;;
32852;SDS011;20515;51.704;5.700;2022-07-03T04:42:19;14.10;;;7.80;;
32852;SDS011;20515;51.704;5.700;2022-07-03T04:44:45;17.73;;;8.67;;
32852;SDS011;20515;51.704;5.700;2022-07-03T04:47:10;17.90;;;9.33;;
32852;SDS011;20515;51.704;5.700;2022-07-03T04:49:35;16.33;;;8.77;;
32852;SDS011;20515;51.704;5.700;2022-07-03T04:52:01;18.20;;;10.00;;
32852;SDS011;20515;51.704;5.700;2022-07-03T04:54:26;17.67;;;9.23;;
32852;SDS011;20515;51.704;5.700;2022-07-03T04:56:51;17.50;;;10.20;;
32852;SDS011;20515;51.704;5.700;2022-07-03T04:59:17;20.33;;;9.63;;
32852;SDS011;20515;51.704;5.700;2022-07-03T05:01:42;15.33;;;8.63;;
32852;SDS011;20515;51.704;5.700;2022-07-03T05:04:07;16.87;;;8.40;;
32852;SDS011;20515;51.704;5.700;2022-07-03T05:06:32;17.80;;;8.87;;
32852;SDS011;20515;51.704;5.700;2022-07-03T05:08:58;16.63;;;7.70;;
32852;SDS011;20515;51.704;5.700;2022-07-03T05:11:23;19.43;;;7.03;;
32852;SDS011;20515;51.704;5.700;2022-07-03T05:13:48;17.47;;;6.70;;
32852;SDS011;20515;51.704;5.700;2022-07-03T05:16:14;18.47;;;5.90;;
32852;SDS011;20515;51.704;5.700;2022-07-03T05:18:39;15.60;;;5.10;;
32852;SDS011;20515;51.704;5.700;2022-07-03T05:21:04;11.90;;;4.20;;
32852;SDS011;20515;51.704;5.700;2022-07-03T05:23:30;14.00;;;4.50;;
32852;SDS011;20515;51.704;5.700;2022-07-03T05:25:55;12.87;;;3.73;;
32852;SDS011;20515;51.704;5.700;2022-07-03T05:28:20;12.77;;;4.27;;
32852;SDS011;20515;51.704;5.700;2022-07-03T05:30:46;12.13;;;4.20;;
32852;SDS011;20515;51.704;5.700;2022-07-03T05:33:11;15.40;;;4.27;;
32852;SDS011;20515;51.704;5.700;2022-07-03T05:35:36;12.67;;;4.53;;
32852;SDS011;20515;51.704;5.700;2022-07-03T05:38:02;13.07;;;4.37;;
32852;SDS011;20515;51.704;5.700;2022-07-03T05:40:27;12.73;;;4.47;;
32852;SDS011;20515;51.704;5.700;2022-07-03T05:42:52;13.93;;;4.50;;
32852;SDS011;20515;51.704;5.700;2022-07-03T05:45:18;13.33;;;4.67;;
32852;SDS011;20515;51.704;5.700;2022-07-03T05:47:43;12.43;;;4.93;;
32852;SDS011;20515;51.704;5.700;2022-07-03T05:50:09;12.67;;;5.10;;
32852;SDS011;20515;51.704;5.700;2022-07-03T05:52:34;11.80;;;4.53;;
32852;SDS011;20515;51.704;5.700;2022-07-03T05:55:00;13.67;;;4.77;;
32852;SDS011;20515;51.704;5.700;2022-07-03T05:57:25;15.00;;;5.00;;
32852;SDS011;20515;51.704;5.700;2022-07-03T05:59:51;15.57;;;5.20;;
32852;SDS011;20515;51.704;5.700;2022-07-03T06:02:16;14.20;;;4.80;;
32852;SDS011;20515;51.704;5.700;2022-07-03T06:04:42;14.30;;;5.20;;
32852;SDS011;20515;51.704;5.700;2022-07-03T06:07:07;12.73;;;5.30;;
32852;SDS011;20515;51.704;5.700;2022-07-03T06:09:33;14.40;;;5.17;;
32852;SDS011;20515;51.704;5.700;2022-07-03T06:11:58;14.20;;;5.33;;
32852;SDS011;20515;51.704;5.700;2022-07-03T06:14:23;13.10;;;5.13;;
32852;SDS011;20515;51.704;5.700;2022-07-03T06:16:48;13.20;;;4.90;;
32852;SDS011;20515;51.704;5.700;2022-07-03T06:19:14;13.17;;;4.63;;
32852;SDS011;20515;51.704;5.700;2022-07-03T06:21:39;15.70;;;4.77;;
32852;SDS011;20515;51.704;5.700;2022-07-03T06:24:05;13.80;;;4.43;;
32852;SDS011;20515;51.704;5.700;2022-07-03T06:26:30;12.47;;;3.90;;
32852;SDS011;20515;51.704;5.700;2022-07-03T06:28:56;12.30;;;3.63;;
32852;SDS011;20515;51.704;5.700;2022-07-03T06:31:21;13.17;;;3.47;;
32852;SDS011;20515;51.704;5.700;2022-07-03T06:33:46;10.40;;;3.50;;
32852;SDS011;20515;51.704;5.700;2022-07-03T06:36:11;13.77;;;3.53;;
32852;SDS011;20515;51.704;5.700;2022-07-03T06:38:37;14.67;;;3.33;;
32852;SDS011;20515;51.704;5.700;2022-07-03T06:41:02;12.67;;;3.80;;
32852;SDS011;20515;51.704;5.700;2022-07-03T06:43:27;11.50;;;3.37;;
32852;SDS011;20515;51.704;5.700;2022-07-03T06:45:52;11.77;;;3.30;;
32852;SDS011;20515;51.704;5.700;2022-07-03T06:48:18;12.07;;;3.30;;
32852;SDS011;20515;51.704;5.700;2022-07-03T06:50:44;11.00;;;3.40;;
32852;SDS011;20515;51.704;5.700;2022-07-03T06:53:10;12.80;;;3.53;;
32852;SDS011;20515;51.704;5.700;2022-07-03T06:55:35;11.40;;;3.00;;
32852;SDS011;20515;51.704;5.700;2022-07-03T06:58:01;11.23;;;3.33;;
32852;SDS011;20515;51.704;5.700;2022-07-03T07:00:26;11.73;;;3.23;;
32852;SDS011;20515;51.704;5.700;2022-07-03T07:02:52;11.67;;;2.83;;
32852;SDS011;20515;51.704;5.700;2022-07-03T07:05:17;16.23;;;3.40;;
32852;SDS011;20515;51.704;5.700;2022-07-03T07:07:42;14.57;;;3.13;;
32852;SDS011;20515;51.704;5.700;2022-07-03T07:10:08;12.10;;;3.03;;
32852;SDS011;20515;51.704;5.700;2022-07-03T07:12:33;12.37;;;3.17;;
32852;SDS011;20515;51.704;5.700;2022-07-03T07:14:59;11.33;;;2.80;;
32852;SDS011;20515;51.704;5.700;2022-07-03T07:17:24;11.23;;;2.80;;
32852;SDS011;20515;51.704;5.700;2022-07-03T07:19:49;10.20;;;2.80;;
32852;SDS011;20515;51.704;5.700;2022-07-03T07:22:14;15.70;;;2.83;;
32852;SDS011;20515;51.704;5.700;2022-07-03T07:24:40;12.17;;;2.60;;
32852;SDS011;20515;51.704;5.700;2022-07-03T07:27:05;14.33;;;2.63;;
32852;SDS011;20515;51.704;5.700;2022-07-03T07:29:30;10.40;;;2.43;;
32852;SDS011;20515;51.704;5.700;2022-07-03T07:31:56;10.40;;;2.60;;
32852;SDS011;20515;51.704;5.700;2022-07-03T07:34:21;9.93;;;2.33;;
32852;SDS011;20515;51.704;5.700;2022-07-03T07:36:46;8.80;;;2.40;;
32852;SDS011;20515;51.704;5.700;2022-07-03T07:39:12;10.27;;;2.53;;
32852;SDS011;20515;51.704;5.700;2022-07-03T07:41:37;9.63;;;2.53;;
32852;SDS011;20515;51.704;5.700;2022-07-03T07:44:03;10.97;;;2.87;;
32852;SDS011;20515;51.704;5.700;2022-07-03T07:46:29;11.27;;;2.70;;
32852;SDS011;20515;51.704;5.700;2022-07-03T07:48:55;14.27;;;3.07;;
32852;SDS011;20515;51.704;5.700;2022-07-03T07:51:20;11.87;;;2.70;;
32852;SDS011;20515;51.704;5.700;2022-07-03T07:53:45;10.10;;;2.80;;
32852;SDS011;20515;51.704;5.700;2022-07-03T07:56:11;9.33;;;2.70;;
32852;SDS011;20515;51.704;5.700;2022-07-03T07:58:36;12.20;;;2.80;;
32852;SDS011;20515;51.704;5.700;2022-07-03T08:01:01;10.40;;;2.73;;
32852;SDS011;20515;51.704;5.700;2022-07-03T08:03:45;12.87;;;2.73;;
32852;SDS011;20515;51.704;5.700;2022-07-03T08:06:29;10.50;;;2.60;;
32852;SDS011;20515;51.704;5.700;2022-07-03T08:08:55;9.70;;;2.33;;
32852;SDS011;20515;51.704;5.700;2022-07-03T08:11:20;8.57;;;2.50;;
32852;SDS011;20515;51.704;5.700;2022-07-03T08:13:46;9.93;;;2.50;;
32852;SDS011;20515;51.704;5.700;2022-07-03T08:16:12;12.63;;;2.37;;
32852;SDS011;20515;51.704;5.700;2022-07-03T08:18:38;9.20;;;1.90;;
32852;SDS011;20515;51.704;5.700;2022-07-03T08:21:03;7.83;;;2.00;;
32852;SDS011;20515;51.704;5.700;2022-07-03T08:23:29;6.90;;;2.20;;
32852;SDS011;20515;51.704;5.700;2022-07-03T08:25:54;6.87;;;1.77;;
32852;SDS011;20515;51.704;5.700;2022-07-03T08:28:19;8.07;;;1.70;;
32852;SDS011;20515;51.704;5.700;2022-07-03T08:30:45;8.60;;;2.07;;
32852;SDS011;20515;51.704;5.700;2022-07-03T08:33:10;11.03;;;2.20;;
32852;SDS011;20515;51.704;5.700;2022-07-03T08:35:35;8.23;;;2.00;;
32852;SDS011;20515;51.704;5.700;2022-07-03T08:38:00;8.13;;;1.90;;
32852;SDS011;20515;51.704;5.700;2022-07-03T08:40:26;7.63;;;2.03;;
32852;SDS011;20515;51.704;5.700;2022-07-03T08:42:55;8.27;;;1.93;;
32852;SDS011;20515;51.704;5.700;2022-07-03T08:45:22;7.70;;;2.00;;
32852;SDS011;20515;51.704;5.700;2022-07-03T08:47:49;7.87;;;1.93;;
32852;SDS011;20515;51.704;5.700;2022-07-03T08:50:16;7.97;;;1.83;;
32852;SDS011;20515;51.704;5.700;2022-07-03T08:52:43;9.47;;;1.90;;
32852;SDS011;20515;51.704;5.700;2022-07-03T08:55:10;8.67;;;2.10;;
32852;SDS011;20515;51.704;5.700;2022-07-03T08:57:36;7.83;;;1.77;;
32852;SDS011;20515;51.704;5.700;2022-07-03T09:00:04;7.37;;;1.90;;
32852;SDS011;20515;51.704;5.700;2022-07-03T09:02:31;6.50;;;1.77;;
32852;SDS011;20515;51.704;5.700;2022-07-03T09:04:58;7.40;;;1.87;;
32852;SDS011;20515;51.704;5.700;2022-07-03T09:07:25;9.93;;;2.60;;
32852;SDS011;20515;51.704;5.700;2022-07-03T09:09:52;9.50;;;2.00;;
32852;SDS011;20515;51.704;5.700;2022-07-03T09:12:18;9.20;;;2.00;;
32852;SDS011;20515;51.704;5.700;2022-07-03T09:14:44;10.17;;;2.30;;
32852;SDS011;20515;51.704;5.700;2022-07-03T09:17:10;8.77;;;2.00;;
32852;SDS011;20515;51.704;5.700;2022-07-03T09:19:39;7.10;;;2.07;;
32852;SDS011;20515;51.704;5.700;2022-07-03T09:22:24;8.27;;;2.27;;
32852;SDS011;20515;51.704;5.700;2022-07-03T09:25:14;7.53;;;1.90;;
32852;SDS011;20515;51.704;5.700;2022-07-03T09:27:51;11.30;;;2.37;;
32852;SDS011;20515;51.704;5.700;2022-07-03T09:30:18;9.47;;;2.20;;
32852;SDS011;20515;51.704;5.700;2022-07-03T09:32:44;11.03;;;2.30;;
32852;SDS011;20515;51.704;5.700;2022-07-03T09:37:37;10.77;;;2.10;;
32852;SDS011;20515;51.704;5.700;2022-07-03T09:40:02;10.33;;;2.20;;
32852;SDS011;20515;51.704;5.700;2022-07-03T09:42:28;8.77;;;2.13;;
32852;SDS011;20515;51.704;5.700;2022-07-03T09:44:54;10.80;;;2.20;;
32852;SDS011;20515;51.704;5.700;2022-07-03T09:47:21;8.27;;;2.20;;
32852;SDS011;20515;51.704;5.700;2022-07-03T09:49:54;8.63;;;2.23;;
32852;SDS011;20515;51.704;5.700;2022-07-03T09:54:51;10.17;;;2.40;;
32852;SDS011;20515;51.704;5.700;2022-07-03T09:57:17;9.70;;;2.43;;
32852;SDS011;20515;51.704;5.700;2022-07-03T09:59:43;9.27;;;2.23;;
32852;SDS011;20515;51.704;5.700;2022-07-03T10:02:08;9.50;;;2.40;;
32852;SDS011;20515;51.704;5.700;2022-07-03T10:04:33;7.73;;;2.13;;
32852;SDS011;20515;51.704;5.700;2022-07-03T10:07:00;9.93;;;2.30;;
32852;SDS011;20515;51.704;5.700;2022-07-03T10:09:27;9.63;;;2.40;;
32852;SDS011;20515;51.704;5.700;2022-07-03T10:11:54;9.10;;;2.15;;
32852;SDS011;20515;51.704;5.700;2022-07-03T10:14:21;9.00;;;2.17;;
32852;SDS011;20515;51.704;5.700;2022-07-03T10:16:48;8.40;;;2.38;;
32852;SDS011;20515;51.704;5.700;2022-07-03T10:19:17;9.95;;;2.55;;
32852;SDS011;20515;51.704;5.700;2022-07-03T10:21:46;7.35;;;2.00;;
32852;SDS011;20515;51.704;5.700;2022-07-03T10:24:15;7.75;;;2.10;;
32852;SDS011;20515;51.704;5.700;2022-07-03T10:26:42;9.87;;;2.07;;
32852;SDS011;20515;51.704;5.700;2022-07-03T10:29:08;6.30;;;1.97;;
32852;SDS011;20515;51.704;5.700;2022-07-03T10:31:35;9.67;;;2.10;;
32852;SDS011;20515;51.704;5.700;2022-07-03T10:34:02;7.90;;;2.10;;
32852;SDS011;20515;51.704;5.700;2022-07-03T10:36:29;7.38;;;1.88;;
32852;SDS011;20515;51.704;5.700;2022-07-03T10:38:55;8.15;;;2.03;;
32852;SDS011;20515;51.704;5.700;2022-07-03T10:41:30;9.18;;;2.40;;
32852;SDS011;20515;51.704;5.700;2022-07-03T10:44:22;9.65;;;2.30;;
32852;SDS011;20515;51.704;5.700;2022-07-03T10:47:13;8.57;;;2.10;;
32852;SDS011;20515;51.704;5.700;2022-07-03T10:50:16;8.82;;;2.10;;
32852;SDS011;20515;51.704;5.700;2022-07-03T10:52:43;8.18;;;2.33;;
32852;SDS011;20515;51.704;5.700;2022-07-03T10:55:08;7.47;;;2.10;;
32852;SDS011;20515;51.704;5.700;2022-07-03T10:57:36;10.48;;;2.25;;
32852;SDS011;20515;51.704;5.700;2022-07-03T11:00:07;8.30;;;2.22;;
32852;SDS011;20515;51.704;5.700;2022-07-03T11:07:27;9.18;;;2.58;;
32852;SDS011;20515;51.704;5.700;2022-07-03T11:20:29;8.23;;;2.07;;
32852;SDS011;20515;51.704;5.700;2022-07-03T11:22:59;8.60;;;2.00;;
32852;SDS011;20515;51.704;5.700;2022-07-03T11:28:56;6.50;;;1.73;;
32852;SDS011;20515;51.704;5.700;2022-07-03T11:33:40;7.35;;;1.80;;
32852;SDS011;20515;51.704;5.700;2022-07-03T11:36:09;5.82;;;1.67;;
32852;SDS011;20515;51.704;5.700;2022-07-03T11:38:35;11.45;;;1.80;;
32852;SDS011;20515;51.704;5.700;2022-07-03T11:41:01;8.55;;;1.60;;
32852;SDS011;20515;51.704;5.700;2022-07-03T11:43:31;6.97;;;1.70;;
32852;SDS011;20515;51.704;5.700;2022-07-03T11:45:56;6.18;;;1.70;;
32852;SDS011;20515;51.704;5.700;2022-07-03T11:48:23;8.05;;;1.90;;
32852;SDS011;20515;51.704;5.700;2022-07-03T11:50:50;6.80;;;1.90;;
32852;SDS011;20515;51.704;5.700;2022-07-03T11:53:19;5.82;;;1.83;;
32852;SDS011;20515;51.704;5.700;2022-07-03T11:55:47;7.82;;;1.98;;
32852;SDS011;20515;51.704;5.700;2022-07-03T11:58:14;4.90;;;1.60;;
32852;SDS011;20515;51.704;5.700;2022-07-03T12:00:40;6.72;;;1.70;;
32852;SDS011;20515;51.704;5.700;2022-07-03T12:03:05;6.50;;;1.80;;
32852;SDS011;20515;51.704;5.700;2022-07-03T12:05:30;7.05;;;1.77;;
32852;SDS011;20515;51.704;5.700;2022-07-03T12:08:02;6.90;;;1.83;;
32852;SDS011;20515;51.704;5.700;2022-07-03T12:10:38;6.47;;;1.80;;
32852;SDS011;20515;51.704;5.700;2022-07-03T12:13:08;10.43;;;2.40;;
32852;SDS011;20515;51.704;5.700;2022-07-03T12:15:43;6.53;;;1.80;;
32852;SDS011;20515;51.704;5.700;2022-07-03T12:18:08;7.60;;;1.80;;
32852;SDS011;20515;51.704;5.700;2022-07-03T12:20:34;7.30;;;2.10;;
32852;SDS011;20515;51.704;5.700;2022-07-03T12:22:59;9.13;;;1.70;;
32852;SDS011;20515;51.704;5.700;2022-07-03T12:25:25;6.53;;;1.97;;
32852;SDS011;20515;51.704;5.700;2022-07-03T12:27:54;6.70;;;1.90;;
32852;SDS011;20515;51.704;5.700;2022-07-03T12:30:23;6.07;;;2.00;;
32852;SDS011;20515;51.704;5.700;2022-07-03T12:32:50;6.37;;;2.10;;
32852;SDS011;20515;51.704;5.700;2022-07-03T12:35:26;7.77;;;2.00;;
32852;SDS011;20515;51.704;5.700;2022-07-03T12:37:52;9.27;;;2.47;;
32852;SDS011;20515;51.704;5.700;2022-07-03T12:40:18;7.13;;;1.97;;
32852;SDS011;20515;51.704;5.700;2022-07-03T12:42:53;9.93;;;2.10;;
32852;SDS011;20515;51.704;5.700;2022-07-03T12:45:23;9.20;;;2.50;;
32852;SDS011;20515;51.704;5.700;2022-07-03T12:48:03;8.33;;;2.00;;
32852;SDS011;20515;51.704;5.700;2022-07-03T12:50:48;21.10;;;3.27;;
32852;SDS011;20515;51.704;5.700;2022-07-03T12:53:29;6.60;;;1.90;;
32852;SDS011;20515;51.704;5.700;2022-07-03T12:56:03;7.23;;;1.93;;
32852;SDS011;20515;51.704;5.700;2022-07-03T12:58:30;6.53;;;1.80;;
32852;SDS011;20515;51.704;5.700;2022-07-03T13:01:24;6.63;;;1.70;;
32852;SDS011;20515;51.704;5.700;2022-07-03T13:03:50;6.20;;;1.90;;
32852;SDS011;20515;51.704;5.700;2022-07-03T13:06:16;7.87;;;1.70;;
32852;SDS011;20515;51.704;5.700;2022-07-03T13:11:33;5.67;;;1.70;;
32852;SDS011;20515;51.704;5.700;2022-07-03T13:16:35;7.27;;;1.70;;
32852;SDS011;20515;51.704;5.700;2022-07-03T13:19:04;5.93;;;1.60;;
32852;SDS011;20515;51.704;5.700;2022-07-03T13:21:30;6.83;;;1.83;;
32852;SDS011;20515;51.704;5.700;2022-07-03T13:23:56;7.37;;;2.17;;
32852;SDS011;20515;51.704;5.700;2022-07-03T13:26:21;10.33;;;2.80;;
32852;SDS011;20515;51.704;5.700;2022-07-03T13:28:47;9.13;;;2.90;;
32852;SDS011;20515;51.704;5.700;2022-07-03T13:31:12;10.17;;;2.90;;
32852;SDS011;20515;51.704;5.700;2022-07-03T13:33:37;11.30;;;3.30;;
32852;SDS011;20515;51.704;5.700;2022-07-03T13:36:03;8.03;;;2.50;;
32852;SDS011;20515;51.704;5.700;2022-07-03T13:38:28;7.37;;;1.90;;
32852;SDS011;20515;51.704;5.700;2022-07-03T13:40:53;5.63;;;1.80;;
32852;SDS011;20515;51.704;5.700;2022-07-03T13:43:18;4.80;;;1.40;;
32852;SDS011;20515;51.704;5.700;2022-07-03T13:45:44;6.63;;;1.57;;
32852;SDS011;20515;51.704;5.700;2022-07-03T13:48:09;4.70;;;1.50;;
32852;SDS011;20515;51.704;5.700;2022-07-03T13:50:35;5.33;;;1.60;;
32852;SDS011;20515;51.704;5.700;2022-07-03T13:53:00;4.70;;;1.67;;
32852;SDS011;20515;51.704;5.700;2022-07-03T13:55:25;6.67;;;1.50;;
32852;SDS011;20515;51.704;5.700;2022-07-03T13:57:51;7.67;;;1.80;;
32852;SDS011;20515;51.704;5.700;2022-07-03T14:00:16;5.87;;;1.80;;
32852;SDS011;20515;51.704;5.700;2022-07-03T14:02:42;6.63;;;1.60;;
32852;SDS011;20515;51.704;5.700;2022-07-03T14:05:07;6.40;;;2.20;;
32852;SDS011;20515;51.704;5.700;2022-07-03T14:07:33;9.40;;;2.53;;
32852;SDS011;20515;51.704;5.700;2022-07-03T14:09:59;9.47;;;2.70;;
32852;SDS011;20515;51.704;5.700;2022-07-03T14:12:24;9.97;;;2.60;;
32852;SDS011;20515;51.704;5.700;2022-07-03T14:14:49;9.03;;;2.90;;
32852;SDS011;20515;51.704;5.700;2022-07-03T14:17:14;8.73;;;2.67;;
32852;SDS011;20515;51.704;5.700;2022-07-03T14:19:40;15.30;;;2.40;;
32852;SDS011;20515;51.704;5.700;2022-07-03T14:22:05;14.93;;;2.90;;
32852;SDS011;20515;51.704;5.700;2022-07-03T14:24:30;10.27;;;2.80;;
32852;SDS011;20515;51.704;5.700;2022-07-03T14:26:56;10.03;;;2.80;;
32852;SDS011;20515;51.704;5.700;2022-07-03T14:29:40;10.00;;;2.57;;
32852;SDS011;20515;51.704;5.700;2022-07-03T14:32:24;10.60;;;2.70;;
32852;SDS011;20515;51.704;5.700;2022-07-03T14:34:56;11.23;;;2.70;;
32852;SDS011;20515;51.704;5.700;2022-07-03T14:37:22;9.27;;;2.73;;
32852;SDS011;20515;51.704;5.700;2022-07-03T14:39:48;8.93;;;2.63;;
32852;SDS011;20515;51.704;5.700;2022-07-03T14:42:14;8.40;;;2.57;;
32852;SDS011;20515;51.704;5.700;2022-07-03T14:44:40;9.57;;;2.43;;
32852;SDS011;20515;51.704;5.700;2022-07-03T14:47:06;10.77;;;2.60;;
32852;SDS011;20515;51.704;5.700;2022-07-03T14:49:31;11.27;;;2.70;;
32852;SDS011;20515;51.704;5.700;2022-07-03T14:52:00;10.17;;;2.67;;
32852;SDS011;20515;51.704;5.700;2022-07-03T14:54:26;8.73;;;2.60;;
32852;SDS011;20515;51.704;5.700;2022-07-03T14:56:55;9.43;;;2.50;;
32852;SDS011;20515;51.704;5.700;2022-07-03T14:59:32;9.30;;;2.60;;
32852;SDS011;20515;51.704;5.700;2022-07-03T15:02:04;8.97;;;2.43;;
32852;SDS011;20515;51.704;5.700;2022-07-03T15:04:41;10.27;;;2.37;;
32852;SDS011;20515;51.704;5.700;2022-07-03T15:07:13;9.60;;;2.40;;
32852;SDS011;20515;51.704;5.700;2022-07-03T15:09:43;8.97;;;2.40;;
32852;SDS011;20515;51.704;5.700;2022-07-03T15:12:19;7.90;;;2.20;;
32852;SDS011;20515;51.704;5.700;2022-07-03T15:14:54;7.70;;;2.17;;
32852;SDS011;20515;51.704;5.700;2022-07-03T15:17:20;9.80;;;2.30;;
32852;SDS011;20515;51.704;5.700;2022-07-03T15:19:46;9.47;;;2.43;;
32852;SDS011;20515;51.704;5.700;2022-07-03T15:22:13;8.23;;;2.20;;
32852;SDS011;20515;51.704;5.700;2022-07-03T15:24:40;9.93;;;2.40;;
32852;SDS011;20515;51.704;5.700;2022-07-03T15:27:06;6.87;;;2.17;;
32852;SDS011;20515;51.704;5.700;2022-07-03T15:29:31;8.03;;;2.00;;
32852;SDS011;20515;51.704;5.700;2022-07-03T15:32:01;10.20;;;1.90;;
32852;SDS011;20515;51.704;5.700;2022-07-03T15:34:28;8.00;;;2.10;;
32852;SDS011;20515;51.704;5.700;2022-07-03T15:37:17;9.00;;;2.17;;
32852;SDS011;20515;51.704;5.700;2022-07-03T15:45:23;7.07;;;1.83;;
32852;SDS011;20515;51.704;5.700;2022-07-03T15:48:16;7.27;;;1.70;;
32852;SDS011;20515;51.704;5.700;2022-07-03T15:50:51;6.57;;;1.73;;
32852;SDS011;20515;51.704;5.700;2022-07-03T15:53:27;6.53;;;1.90;;